Time;durP1;ratioP1;P1;durP2;ratioP2;P2;SDS_P1;SDS_P2;PMS_P1;PMS_P2;Temp;Humidity;BMP_temperature;BMP_pressure;BME280_temperature;BME280_humidity;BME280_pressure;Samples;Min_cycle;Max_cycle;Signal;HPM_P1;HPM_P2
2021/11/14 00:00:57;;;;;;;13.85;8.93;;;10.30;99.90;;;;;;5034292;28;20208;-77
2021/11/14 00:03:26;;;;;;;15.98;10.52;;;10.20;99.90;;;;;;5034837;28;20212;-77
2021/11/14 00:05:53;;;;;;;15.38;10.35;;;10.10;99.90;;;;;;5034311;28;20215;-77
2021/11/14 00:08:21;;;;;;;11.20;8.83;;;10.00;99.90;;;;;;5034261;28;20236;-77
2021/11/14 00:10:52;;;;;;;14.23;9.73;;;10.00;99.90;;;;;;5039998;28;20451;-78
2021/11/14 00:13:20;;;;;;;13.00;10.63;;;9.90;99.90;;;;;;5041763;28;20852;-78
2021/11/14 00:15:46;;;;;;;15.38;10.85;;;10.00;99.90;;;;;;5037706;28;20430;-77
2021/11/14 00:18:13;;;;;;;13.75;9.10;;;10.00;99.90;;;;;;5037354;28;20268;-77
2021/11/14 00:20:43;;;;;;;13.47;9.60;;;10.00;99.90;;;;;;5037919;28;20648;-77
2021/11/14 00:23:11;;;;;;;12.77;9.60;;;10.00;99.90;;;;;;5037547;28;20767;-77
2021/11/14 00:25:38;;;;;;;13.63;9.20;;;10.00;99.90;;;;;;5037239;28;20209;-76
2021/11/14 00:28:06;;;;;;;15.07;10.20;;;10.00;99.90;;;;;;5036698;28;20722;-77
2021/11/14 00:30:33;;;;;;;13.90;10.60;;;10.00;99.90;;;;;;5037208;28;20520;-77
2021/11/14 00:33:00;;;;;;;15.77;10.47;;;10.00;99.90;;;;;;5039865;28;20296;-77
2021/11/14 00:35:27;;;;;;;11.55;9.88;;;10.00;99.90;;;;;;5037357;28;20771;-76
2021/11/14 00:37:55;;;;;;;13.77;10.20;;;10.10;99.90;;;;;;5037145;28;20597;-76
2021/11/14 00:40:26;;;;;;;15.37;10.73;;;10.10;99.90;;;;;;5036447;28;20950;-76
2021/11/14 00:42:54;;;;;;;14.57;9.73;;;10.30;99.90;;;;;;5040737;28;20498;-77
2021/11/14 00:45:21;;;;;;;13.70;10.13;;;10.30;99.90;;;;;;5042504;28;20747;-77
2021/11/14 00:47:48;;;;;;;13.17;10.20;;;10.40;99.90;;;;;;5037487;28;20501;-77
2021/11/14 00:50:15;;;;;;;13.83;10.40;;;10.40;99.90;;;;;;5036967;28;20998;-77
2021/11/14 00:52:44;;;;;;;13.40;10.00;;;10.40;99.90;;;;;;5036065;28;20479;-77
2021/11/14 00:55:15;;;;;;;15.38;11.10;;;10.40;99.90;;;;;;5036042;28;20966;-77
2021/11/14 00:57:42;;;;;;;13.55;10.98;;;10.30;99.90;;;;;;5036620;28;20343;-76
2021/11/14 01:00:14;;;;;;;16.50;12.60;;;10.20;99.90;;;;;;5036022;28;20216;-77
2021/11/14 01:02:41;;;;;;;16.90;12.57;;;10.20;99.90;;;;;;5036068;28;20510;-76
2021/11/14 01:05:11;;;;;;;14.60;10.27;;;10.20;99.90;;;;;;5037922;28;20481;-77
2021/11/14 01:07:38;;;;;;;15.70;11.27;;;10.10;99.90;;;;;;5037250;28;20477;-77
2021/11/14 01:10:08;;;;;;;19.88;13.55;;;10.10;99.90;;;;;;5037469;28;20460;-76
2021/11/14 01:12:36;;;;;;;19.63;13.23;;;10.00;99.90;;;;;;5037367;28;20224;-76
2021/11/14 01:15:05;;;;;;;21.98;13.35;;;10.00;99.90;;;;;;5037909;28;20214;-76
2021/11/14 01:17:32;;;;;;;14.50;11.80;;;10.00;99.90;;;;;;5035695;28;20731;-76
2021/11/14 01:19:59;;;;;;;18.48;12.30;;;10.00;99.90;;;;;;5036727;28;20216;-76
2021/11/14 01:22:26;;;;;;;16.70;12.67;;;10.00;99.90;;;;;;5035787;28;20201;-76
2021/11/14 01:24:53;;;;;;;18.60;13.65;;;10.00;99.90;;;;;;5035431;28;20967;-76
2021/11/14 01:27:21;;;;;;;21.33;14.48;;;9.90;99.90;;;;;;5035707;28;20236;-76
2021/11/14 01:29:49;;;;;;;17.42;13.55;;;9.90;99.90;;;;;;5035956;28;20277;-76
2021/11/14 01:32:16;;;;;;;19.20;14.13;;;10.00;99.90;;;;;;5037895;28;20694;-77
2021/11/14 01:34:43;;;;;;;19.95;16.05;;;9.90;99.90;;;;;;5036157;28;20208;-77
2021/11/14 01:37:10;;;;;;;18.15;13.00;;;9.90;99.90;;;;;;5035967;28;20317;-76
2021/11/14 01:39:37;;;;;;;20.23;15.43;;;10.00;99.90;;;;;;5035532;28;20309;-77
2021/11/14 01:42:04;;;;;;;19.02;14.80;;;9.90;99.90;;;;;;5035256;28;20795;-76
2021/11/14 01:44:31;;;;;;;19.52;15.02;;;10.00;99.90;;;;;;5035396;28;20210;-76
2021/11/14 01:46:59;;;;;;;19.43;15.47;;;10.10;99.90;;;;;;5035508;28;20209;-76
2021/11/14 01:49:26;;;;;;;20.90;16.40;;;10.00;99.90;;;;;;5035331;28;20444;-77
2021/11/14 01:51:53;;;;;;;21.42;16.70;;;10.00;99.90;;;;;;5035095;28;20491;-76
2021/11/14 01:54:22;;;;;;;19.75;15.88;;;9.90;99.90;;;;;;5034954;28;20222;-77
2021/11/14 01:56:49;;;;;;;21.48;16.52;;;9.90;99.90;;;;;;5035005;28;20259;-76
2021/11/14 01:59:16;;;;;;;21.50;16.80;;;9.90;99.90;;;;;;5035017;28;20235;-77
2021/11/14 02:01:43;;;;;;;22.80;17.87;;;9.90;99.90;;;;;;5035106;28;20468;-76
2021/11/14 02:04:11;;;;;;;26.07;19.23;;;10.00;99.90;;;;;;5034989;28;20484;-77
2021/11/14 02:06:40;;;;;;;19.60;15.82;;;9.90;99.90;;;;;;5035052;28;20890;-76
2021/11/14 02:09:07;;;;;;;28.80;18.85;;;9.80;99.90;;;;;;5034561;28;20240;-76
2021/11/14 02:11:35;;;;;;;24.83;18.13;;;9.90;99.90;;;;;;5034794;28;20212;-77
2021/11/14 02:14:01;;;;;;;25.50;19.05;;;9.90;99.90;;;;;;5034884;28;20209;-77
2021/11/14 02:16:29;;;;;;;26.23;19.20;;;9.80;99.90;;;;;;5035006;28;20212;-76
2021/11/14 02:18:57;;;;;;;26.20;20.83;;;9.80;99.90;;;;;;5034627;28;20225;-76
2021/11/14 02:21:25;;;;;;;24.10;18.77;;;9.70;99.90;;;;;;5034692;28;20208;-76
2021/11/14 02:23:52;;;;;;;24.00;19.30;;;9.70;99.90;;;;;;5034808;28;20200;-78
2021/11/14 02:26:22;;;;;;;26.33;19.35;;;9.70;99.90;;;;;;5034868;28;20215;-77
2021/11/14 02:28:50;;;;;;;24.95;19.52;;;9.80;99.90;;;;;;5034655;28;20224;-77
2021/11/14 02:31:17;;;;;;;24.23;18.63;;;9.90;99.90;;;;;;5034466;28;20209;-77
2021/11/14 02:33:44;;;;;;;22.23;17.35;;;10.00;99.90;;;;;;5033808;28;20224;-77
2021/11/14 02:36:12;;;;;;;24.23;18.02;;;10.00;99.90;;;;;;5034848;28;20234;-77
2021/11/14 02:38:42;;;;;;;22.70;18.58;;;10.00;99.90;;;;;;5034326;28;20707;-77
2021/11/14 02:41:10;;;;;;;22.48;17.55;;;10.00;99.90;;;;;;5034251;28;20292;-77
2021/11/14 02:43:39;;;;;;;24.63;18.48;;;10.00;99.90;;;;;;5034374;28;20228;-77
2021/11/14 02:46:06;;;;;;;27.40;20.45;;;9.90;99.90;;;;;;5033888;28;20609;-77
2021/11/14 02:48:33;;;;;;;23.90;18.52;;;9.90;99.90;;;;;;5034143;28;20228;-77
2021/11/14 02:51:06;;;;;;;28.40;19.58;;;9.80;99.90;;;;;;5034983;28;20576;-77
2021/11/14 02:53:33;;;;;;;23.85;18.00;;;9.80;99.90;;;;;;5034137;28;20212;-77
2021/11/14 02:56:02;;;;;;;24.63;19.15;;;9.80;99.90;;;;;;5034195;28;20302;-78
2021/11/14 02:58:29;;;;;;;20.57;17.47;;;9.90;99.90;;;;;;5034230;28;20233;-77
2021/11/14 03:01:02;;;;;;;23.10;18.73;;;10.10;99.90;;;;;;5034025;28;20476;-77
2021/11/14 03:03:29;;;;;;;24.30;17.90;;;10.30;99.90;;;;;;5033995;28;20196;-77
2021/11/14 03:05:56;;;;;;;22.60;17.60;;;10.30;99.90;;;;;;5034235;28;20210;-77
2021/11/14 03:08:23;;;;;;;24.67;18.38;;;10.30;99.90;;;;;;5033882;28;20453;-76
2021/11/14 03:10:50;;;;;;;22.50;17.17;;;10.20;99.90;;;;;;5033977;28;20295;-76
2021/11/14 03:13:21;;;;;;;24.88;18.30;;;10.20;99.90;;;;;;5034104;28;20236;-76
2021/11/14 03:15:54;;;;;;;21.02;17.17;;;10.20;99.90;;;;;;5033795;28;20196;-76
2021/11/14 03:18:21;;;;;;;22.63;18.10;;;10.10;99.90;;;;;;5033713;28;20721;-76
2021/11/14 03:20:49;;;;;;;25.33;18.20;;;10.10;99.90;;;;;;5034310;28;20458;-77
2021/11/14 03:23:17;;;;;;;22.20;17.90;;;10.00;99.90;;;;;;5033836;28;20422;-76
2021/11/14 03:25:45;;;;;;;24.20;18.30;;;10.00;99.90;;;;;;5033444;28;20464;-76
2021/11/14 03:28:14;;;;;;;27.97;18.87;;;10.00;99.90;;;;;;5033661;28;20238;-76
2021/11/14 03:30:43;;;;;;;25.00;19.67;;;9.90;99.90;;;;;;5033581;28;20546;-77
2021/11/14 03:33:12;;;;;;;26.20;19.38;;;9.90;99.90;;;;;;5033845;28;20236;-77
2021/11/14 03:35:42;;;;;;;26.58;19.63;;;9.90;99.90;;;;;;5034245;28;20214;-77
2021/11/14 03:38:10;;;;;;;25.08;18.85;;;9.80;99.90;;;;;;5057008;22;20261;-77
2021/11/14 03:40:37;;;;;;;23.77;18.25;;;9.80;99.90;;;;;;5032475;28;20212;-77
2021/11/14 03:43:04;;;;;;;28.13;21.35;;;9.80;99.90;;;;;;5034243;28;20201;-77
2021/11/14 03:45:32;;;;;;;27.10;20.98;;;9.70;99.90;;;;;;5032528;28;20208;-77
2021/11/14 03:48:01;;;;;;;24.33;17.83;;;9.80;99.90;;;;;;5032285;28;20209;-76
2021/11/14 03:50:28;;;;;;;24.50;18.83;;;9.80;99.90;;;;;;5032826;28;20461;-76
2021/11/14 03:52:55;;;;;;;24.42;18.13;;;9.90;99.90;;;;;;5032476;28;20232;-77
2021/11/14 03:55:23;;;;;;;23.73;19.97;;;9.90;99.90;;;;;;5032523;28;20299;-77
2021/11/14 03:57:50;;;;;;;24.50;19.02;;;9.90;99.90;;;;;;5032784;28;20550;-77
2021/11/14 04:00:20;;;;;;;23.08;18.58;;;9.90;99.90;;;;;;5032275;28;20206;-77
2021/11/14 04:02:49;;;;;;;24.80;18.23;;;9.90;99.90;;;;;;5032868;28;20209;-78
2021/11/14 04:05:18;;;;;;;24.67;18.52;;;9.90;99.90;;;;;;5032708;28;20464;-77
2021/11/14 04:07:45;;;;;;;23.83;18.00;;;9.90;99.90;;;;;;5032382;28;20224;-77
2021/11/14 04:10:12;;;;;;;24.50;18.35;;;10.00;99.90;;;;;;5032065;28;20622;-77
2021/11/14 04:12:41;;;;;;;26.20;18.70;;;10.20;99.90;;;;;;5036187;28;20233;-79
2021/11/14 04:15:11;;;;;;;24.53;18.17;;;10.10;99.90;;;;;;5042016;28;21044;-79
2021/11/14 04:17:38;;;;;;;21.77;17.23;;;10.30;99.90;;;;;;5042573;28;20450;-80
2021/11/14 04:20:07;;;;;;;23.88;18.58;;;10.50;99.90;;;;;;5042761;28;20247;-79
2021/11/14 04:22:36;;;;;;;23.38;17.83;;;10.50;99.90;;;;;;5041820;28;20269;-79
2021/11/14 04:25:03;;;;;;;24.20;17.45;;;10.40;99.90;;;;;;5041896;28;20300;-79
2021/11/14 04:27:30;;;;;;;22.73;17.57;;;10.30;99.90;;;;;;5042707;28;20219;-80
2021/11/14 04:29:57;;;;;;;21.53;16.50;;;10.20;99.90;;;;;;5043205;28;20539;-79
2021/11/14 04:32:24;;;;;;;24.20;18.33;;;10.20;99.90;;;;;;5043774;28;20525;-79
2021/11/14 04:34:50;;;;;;;23.43;17.87;;;10.40;99.90;;;;;;5043636;28;20459;-79
2021/11/14 04:37:17;;;;;;;23.03;16.47;;;10.30;99.90;;;;;;5053660;28;20503;-79
2021/11/14 04:39:45;;;;;;;25.00;17.17;;;10.30;99.90;;;;;;5056573;28;20484;-78
2021/11/14 04:42:12;;;;;;;21.95;16.55;;;10.30;99.90;;;;;;5045319;28;20241;-80
2021/11/14 04:44:39;;;;;;;20.50;16.40;;;10.30;99.90;;;;;;5042918;28;20264;-79
2021/11/14 04:47:06;;;;;;;20.95;16.35;;;10.30;99.90;;;;;;5042757;28;20292;-79
2021/11/14 04:49:33;;;;;;;23.10;17.27;;;10.20;99.90;;;;;;5043030;28;20690;-79
2021/11/14 04:52:00;;;;;;;23.63;18.17;;;10.10;99.90;;;;;;5042003;28;20455;-80
2021/11/14 04:54:27;;;;;;;22.27;18.55;;;10.00;99.90;;;;;;5042310;28;20232;-79
2021/11/14 04:56:55;;;;;;;23.35;17.73;;;10.10;99.90;;;;;;5044618;28;20204;-80
2021/11/14 04:59:22;;;;;;;24.43;18.43;;;10.00;99.90;;;;;;5054099;28;20229;-80
2021/11/14 05:01:49;;;;;;;25.35;17.95;;;9.90;99.90;;;;;;5057806;28;20457;-79
2021/11/14 05:04:16;;;;;;;23.98;18.95;;;9.80;99.90;;;;;;5056886;28;20230;-80
2021/11/14 05:06:43;;;;;;;25.30;18.58;;;9.70;99.90;;;;;;5055354;28;20292;-79
2021/11/14 05:09:10;;;;;;;24.38;18.75;;;9.70;99.90;;;;;;5048138;28;20234;-81
2021/11/14 05:11:37;;;;;;;24.45;19.13;;;9.70;99.90;;;;;;5047433;28;20209;-81
2021/11/14 05:14:05;;;;;;;25.67;19.60;;;9.70;99.90;;;;;;5046763;28;20320;-79
2021/11/14 05:16:32;;;;;;;23.02;18.35;;;9.80;99.90;;;;;;5047516;28;20276;-80
2021/11/14 05:18:59;;;;;;;27.88;20.73;;;9.80;99.90;;;;;;5047095;28;20295;-80
2021/11/14 05:21:26;;;;;;;24.02;18.83;;;9.80;99.90;;;;;;5045708;28;20276;-80
2021/11/14 05:23:53;;;;;;;28.50;18.75;;;9.80;99.90;;;;;;5049711;28;20208;-80
2021/11/14 05:26:19;;;;;;;23.38;18.95;;;9.90;99.90;;;;;;5047749;28;20205;-80
2021/11/14 05:28:47;;;;;;;26.25;19.00;;;9.90;99.90;;;;;;5048344;28;20288;-80
2021/11/14 05:31:15;;;;;;;23.15;18.38;;;9.90;99.90;;;;;;5050796;28;20213;-79
2021/11/14 05:33:42;;;;;;;23.60;18.50;;;9.80;99.90;;;;;;5046219;28;20220;-79
2021/11/14 05:36:09;;;;;;;26.88;20.48;;;9.80;99.90;;;;;;5045010;28;20732;-81
2021/11/14 05:38:36;;;;;;;26.75;19.40;;;9.80;99.90;;;;;;5043654;28;20359;-79
2021/11/14 05:41:03;;;;;;;25.80;19.25;;;9.80;99.90;;;;;;5036870;28;20253;-78
2021/11/14 05:43:30;;;;;;;26.15;18.73;;;9.80;99.90;;;;;;5037790;28;20219;-77
2021/11/14 05:45:56;;;;;;;23.02;18.40;;;9.80;99.90;;;;;;5037775;28;20547;-77
2021/11/14 05:48:24;;;;;;;24.63;18.92;;;9.90;99.90;;;;;;5036763;28;20236;-78
2021/11/14 05:50:51;;;;;;;26.20;17.80;;;10.00;99.90;;;;;;5037246;28;20563;-78
2021/11/14 05:53:18;;;;;;;25.45;18.65;;;10.10;99.90;;;;;;5035301;28;20225;-77
2021/11/14 05:55:45;;;;;;;24.48;18.15;;;10.30;99.90;;;;;;5036543;28;20219;-77
2021/11/14 05:58:16;;;;;;;25.20;18.23;;;10.10;99.90;;;;;;5034359;28;20552;-77
2021/11/14 06:00:50;;;;;;;24.70;17.60;;;10.10;99.90;;;;;;5034093;28;20287;-77
2021/11/14 06:06:02;;;;;;;25.58;17.05;;;10.00;99.90;;;;;;5036024;28;20288;-78
2021/11/14 06:08:29;;;;;;;22.67;19.02;;;10.00;99.90;;;;;;5034549;28;20635;-77
2021/11/14 06:10:57;;;;;;;24.65;19.55;;;10.00;99.90;;;;;;5034117;28;20661;-77
2021/11/14 06:13:26;;;;;;;25.10;19.35;;;10.00;99.90;;;;;;5034026;28;20232;-77
2021/11/14 06:15:53;;;;;;;26.27;18.25;;;10.00;99.90;;;;;;5034032;28;20204;-77
2021/11/14 06:18:20;;;;;;;23.60;17.42;;;10.00;99.90;;;;;;5034139;28;20236;-77
2021/11/14 06:20:47;;;;;;;20.87;17.23;;;10.10;99.90;;;;;;5034520;28;20244;-77
2021/11/14 06:23:16;;;;;;;25.80;19.65;;;10.10;99.90;;;;;;5034070;28;20459;-77
2021/11/14 06:25:43;;;;;;;22.03;17.60;;;10.10;99.90;;;;;;5034026;28;20318;-77
2021/11/14 06:28:10;;;;;;;23.93;18.30;;;10.10;99.90;;;;;;5033931;28;20474;-77
2021/11/14 06:30:37;;;;;;;22.38;17.20;;;10.00;99.90;;;;;;5033878;28;20820;-77
2021/11/14 06:33:04;;;;;;;22.88;17.48;;;10.00;99.90;;;;;;5034227;28;20213;-77
2021/11/14 06:35:31;;;;;;;23.83;18.45;;;10.00;99.90;;;;;;5033749;28;20212;-78
2021/11/14 06:37:58;;;;;;;26.10;19.23;;;10.00;99.90;;;;;;5033221;28;20597;-77
2021/11/14 06:40:27;;;;;;;24.35;18.02;;;10.10;99.90;;;;;;5033798;28;20531;-77
2021/11/14 06:42:54;;;;;;;25.20;18.23;;;10.20;99.90;;;;;;5033407;28;20696;-77
2021/11/14 06:45:21;;;;;;;25.60;18.30;;;10.40;99.90;;;;;;5033580;28;20796;-77
2021/11/14 06:47:50;;;;;;;24.27;17.57;;;10.30;99.90;;;;;;5033718;28;20459;-76
2021/11/14 06:50:16;;;;;;;21.03;16.97;;;10.20;99.90;;;;;;5034228;28;20782;-77
2021/11/14 06:52:45;;;;;;;23.73;18.13;;;10.30;99.90;;;;;;5035009;28;20447;-78
2021/11/14 06:55:14;;;;;;;24.30;18.03;;;10.30;99.90;;;;;;5035486;28;20489;-78
2021/11/14 06:57:42;;;;;;;23.97;17.20;;;10.20;99.90;;;;;;5036407;28;20458;-78
2021/11/14 07:00:12;;;;;;;23.83;17.20;;;10.20;99.90;;;;;;5033376;28;20456;-77
2021/11/14 07:02:40;;;;;;;24.48;17.60;;;10.30;99.90;;;;;;5033186;28;20449;-77
2021/11/14 07:05:07;;;;;;;25.50;18.50;;;10.40;99.90;;;;;;5033234;28;20650;-77
2021/11/14 07:07:35;;;;;;;24.17;17.27;;;10.30;99.90;;;;;;5033019;28;20547;-77
2021/11/14 07:10:02;;;;;;;24.83;18.13;;;10.20;99.90;;;;;;5032931;28;20229;-77
2021/11/14 07:12:29;;;;;;;25.63;17.48;;;10.10;99.90;;;;;;5034197;28;20617;-78
2021/11/14 07:14:58;;;;;;;24.42;18.23;;;10.10;99.90;;;;;;5033299;28;20600;-78
2021/11/14 07:17:26;;;;;;;24.03;17.90;;;10.00;99.90;;;;;;5033887;28;20515;-77
2021/11/14 07:19:54;;;;;;;24.90;17.60;;;10.00;99.90;;;;;;5032467;28;20476;-77
2021/11/14 07:22:21;;;;;;;24.30;17.03;;;10.00;99.90;;;;;;5033266;28;20490;-77
2021/11/14 07:24:48;;;;;;;23.10;17.90;;;10.00;99.90;;;;;;5034078;28;20539;-80
2021/11/14 07:27:14;;;;;;;24.05;15.75;;;10.00;99.90;;;;;;5032999;28;20564;-77
2021/11/14 07:29:41;;;;;;;28.47;18.93;;;10.00;99.90;;;;;;5033293;28;20233;-78
2021/11/14 07:32:10;;;;;;;24.35;17.75;;;10.10;99.90;;;;;;5032916;28;20452;-76
2021/11/14 07:34:37;;;;;;;25.65;18.27;;;10.00;99.90;;;;;;5032895;28;20236;-76
2021/11/14 07:37:05;;;;;;;26.70;18.48;;;10.00;99.90;;;;;;5032681;28;20213;-77
2021/11/14 07:39:32;;;;;;;24.85;18.83;;;10.00;99.90;;;;;;5034707;28;20236;-77
2021/11/14 07:41:59;;;;;;;23.77;17.42;;;10.00;99.90;;;;;;5032986;28;20214;-76
2021/11/14 07:44:26;;;;;;;25.02;17.77;;;10.10;99.90;;;;;;5032728;28;20641;-77
2021/11/14 07:46:53;;;;;;;23.33;18.30;;;10.30;99.90;;;;;;5034895;28;20209;-76
2021/11/14 07:49:21;;;;;;;25.70;17.27;;;10.30;99.90;;;;;;5033295;28;20315;-77
2021/11/14 07:51:49;;;;;;;22.67;17.40;;;10.30;99.90;;;;;;5033521;28;20213;-77
2021/11/14 07:54:16;;;;;;;22.65;16.83;;;10.30;99.90;;;;;;5033644;28;20232;-77
2021/11/14 07:56:43;;;;;;;19.25;15.48;;;10.20;99.90;;;;;;5033368;28;20288;-78
2021/11/14 07:59:10;;;;;;;24.23;19.15;;;10.20;99.90;;;;;;5033210;28;20233;-77
2021/11/14 08:01:37;;;;;;;25.13;17.92;;;10.00;99.90;;;;;;5035841;28;20275;-82
2021/11/14 08:04:04;;;;;;;24.90;18.80;;;9.80;99.90;;;;;;5035202;28;20291;-77
2021/11/14 08:06:33;;;;;;;30.73;19.63;;;9.90;99.90;;;;;;5034522;28;20640;-77
2021/11/14 08:08:59;;;;;;;23.65;18.50;;;9.70;99.90;;;;;;5036457;28;20471;-79
2021/11/14 08:11:27;;;;;;;24.65;19.35;;;9.90;99.90;;;;;;5035638;28;20641;-78
2021/11/14 08:13:54;;;;;;;25.48;19.75;;;10.00;99.90;;;;;;5036205;28;20321;-80
2021/11/14 08:16:21;;;;;;;25.13;17.23;;;10.00;99.90;;;;;;5036478;28;20212;-81
2021/11/14 08:18:48;;;;;;;23.88;17.80;;;10.20;99.90;;;;;;5033354;28;20227;-78
2021/11/14 08:21:15;;;;;;;23.55;18.13;;;10.10;99.90;;;;;;5033035;28;20244;-78
2021/11/14 08:23:43;;;;;;;24.40;18.85;;;10.10;99.90;;;;;;5033120;28;20200;-78
2021/11/14 08:26:10;;;;;;;26.55;19.30;;;10.00;99.90;;;;;;5033168;28;20212;-78
2021/11/14 08:28:37;;;;;;;24.38;16.67;;;10.00;99.90;;;;;;5036455;28;20232;-79
2021/11/14 08:31:04;;;;;;;26.17;19.40;;;10.20;99.90;;;;;;5040316;28;20614;-78
2021/11/14 08:33:32;;;;;;;24.90;19.38;;;10.10;99.90;;;;;;5042650;28;20547;-79
2021/11/14 08:35:59;;;;;;;28.85;20.65;;;10.00;99.90;;;;;;5040277;28;20225;-78
2021/11/14 08:38:26;;;;;;;23.80;18.40;;;10.10;99.90;;;;;;5039295;28;20342;-79
2021/11/14 08:40:55;;;;;;;23.50;17.70;;;10.30;99.90;;;;;;5037833;28;20459;-79
2021/11/14 08:43:22;;;;;;;23.80;17.63;;;10.50;99.90;;;;;;5044244;28;20447;-78
2021/11/14 08:45:49;;;;;;;24.10;18.00;;;10.60;99.90;;;;;;5042172;28;20297;-78
2021/11/14 08:48:16;;;;;;;23.07;18.23;;;10.50;99.90;;;;;;5038709;28;20770;-78
2021/11/14 08:50:46;;;;;;;22.10;17.45;;;10.60;99.90;;;;;;5048506;28;20455;-78
2021/11/14 08:53:13;;;;;;;21.67;17.40;;;10.60;99.90;;;;;;5037389;28;20239;-78
2021/11/14 08:55:40;;;;;;;19.52;17.30;;;10.40;99.90;;;;;;5036921;28;20362;-78
2021/11/14 08:58:09;;;;;;;21.13;16.30;;;10.50;99.90;;;;;;5039572;28;20240;-78
2021/11/14 09:00:36;;;;;;;19.35;13.65;;;10.60;99.90;;;;;;5039205;28;20796;-78
2021/11/14 09:03:05;;;;;;;18.53;13.40;;;10.70;99.90;;;;;;5037111;28;20208;-78
2021/11/14 09:05:33;;;;;;;20.30;15.52;;;10.80;99.90;;;;;;5038847;28;20875;-79
2021/11/14 09:08:02;;;;;;;20.77;14.35;;;10.70;99.90;;;;;;5038829;28;20209;-79
2021/11/14 09:10:30;;;;;;;17.70;14.60;;;10.70;99.90;;;;;;5038449;28;20202;-78
2021/11/14 09:12:58;;;;;;;20.23;15.10;;;10.60;99.90;;;;;;5037978;28;20219;-79
2021/11/14 09:15:29;;;;;;;16.17;13.32;;;10.70;99.90;;;;;;5038506;28;20493;-78
2021/11/14 09:17:57;;;;;;;19.48;14.48;;;10.80;99.90;;;;;;5036536;28;20203;-79
2021/11/14 09:20:25;;;;;;;21.80;14.33;;;10.80;99.90;;;;;;5037872;28;20189;-78
2021/11/14 09:22:52;;;;;;;19.03;15.90;;;10.70;99.90;;;;;;5036866;28;20543;-78
2021/11/14 09:25:21;;;;;;;18.83;15.90;;;10.70;99.90;;;;;;5037184;28;20432;-76
2021/11/14 09:27:48;;;;;;;18.88;14.80;;;10.60;99.90;;;;;;5035573;28;20421;-78
2021/11/14 09:30:16;;;;;;;25.27;15.73;;;10.50;99.90;;;;;;5036921;28;20204;-77
2021/11/14 09:32:45;;;;;;;20.30;15.38;;;10.70;99.90;;;;;;5036237;28;20452;-78
2021/11/14 09:35:12;;;;;;;18.70;14.50;;;10.80;99.90;;;;;;5035983;28;20231;-78
2021/11/14 09:37:39;;;;;;;17.60;14.27;;;10.90;99.90;;;;;;5035382;28;20554;-79
2021/11/14 09:40:09;;;;;;;18.80;14.30;;;11.00;99.90;;;;;;5072757;22;20299;-81
2021/11/14 09:42:38;;;;;;;19.63;14.47;;;11.10;99.90;;;;;;5059793;28;20476;-79
2021/11/14 09:45:06;;;;;;;19.73;15.13;;;11.10;99.90;;;;;;5057088;28;20522;-79
2021/11/14 09:47:34;;;;;;;19.90;14.70;;;11.10;99.90;;;;;;5057082;28;20459;-79
2021/11/14 09:50:05;;;;;;;18.00;13.90;;;11.00;99.90;;;;;;5057253;28;20997;-81
2021/11/14 09:52:32;;;;;;;20.27;15.70;;;10.90;99.90;;;;;;5056604;28;20432;-79
2021/11/14 09:55:00;;;;;;;20.17;15.40;;;10.90;99.90;;;;;;5057388;28;20486;-79
2021/11/14 09:57:27;;;;;;;19.90;14.77;;;10.90;99.90;;;;;;5061263;28;20464;-79
2021/11/14 09:59:54;;;;;;;18.80;14.10;;;11.00;99.90;;;;;;5059657;28;20467;-80
2021/11/14 10:02:21;;;;;;;18.90;14.67;;;11.00;99.90;;;;;;5059961;28;20461;-80
2021/11/14 10:04:47;;;;;;;20.50;15.37;;;10.90;99.90;;;;;;5057985;28;20502;-80
2021/11/14 10:07:18;;;;;;;21.55;15.10;;;11.00;99.90;;;;;;5057503;28;20462;-79
2021/11/14 10:09:49;;;;;;;21.00;14.87;;;11.00;99.90;;;;;;5056947;28;20248;-80
2021/11/14 10:12:18;;;;;;;19.10;14.00;;;11.00;99.90;;;;;;5057265;28;20833;-80
2021/11/14 10:14:47;;;;;;;20.50;15.07;;;11.10;99.90;;;;;;5059140;28;20502;-80
2021/11/14 10:17:24;;;;;;;24.60;15.68;;;11.10;99.90;;;;;;5059996;28;20451;-80
2021/11/14 10:20:08;;;;;;;17.20;12.07;;;11.10;99.90;;;;;;5057241;28;20236;-80
2021/11/14 10:22:39;;;;;;;19.63;14.30;;;11.10;99.90;;;;;;5058404;28;20971;-80
2021/11/14 10:25:08;;;;;;;20.17;14.60;;;11.00;99.90;;;;;;5060041;28;20484;-80
2021/11/14 10:27:35;;;;;;;19.57;15.40;;;11.10;99.90;;;;;;5064660;28;20520;-79
2021/11/14 10:30:02;;;;;;;19.15;14.05;;;11.10;99.90;;;;;;5059895;28;20502;-80
2021/11/14 10:32:29;;;;;;;20.37;16.27;;;11.20;99.90;;;;;;5056689;28;20230;-80
2021/11/14 10:34:59;;;;;;;21.60;16.42;;;11.10;99.90;;;;;;5056884;28;20594;-80
2021/11/14 10:37:27;;;;;;;23.33;16.97;;;11.10;99.90;;;;;;5057140;28;20208;-80
2021/11/14 10:39:57;;;;;;;22.37;15.83;;;11.10;99.90;;;;;;5056842;28;20490;-81
2021/11/14 10:42:27;;;;;;;22.60;16.53;;;11.20;99.90;;;;;;5057078;28;20808;-80
2021/11/14 10:44:55;;;;;;;24.27;16.47;;;11.40;99.90;;;;;;5057116;28;20563;-80
2021/11/14 10:47:23;;;;;;;21.77;14.47;;;11.50;99.90;;;;;;5057540;28;20459;-80
2021/11/14 10:49:56;;;;;;;22.70;14.97;;;11.50;99.90;;;;;;5055994;28;20487;-80
2021/11/14 10:52:24;;;;;;;22.10;14.43;;;11.60;99.90;;;;;;5056039;28;20451;-79
2021/11/14 10:54:53;;;;;;;24.17;16.40;;;11.50;99.90;;;;;;5069645;28;20471;-81
2021/11/14 10:57:24;;;;;;;21.60;15.47;;;11.40;99.90;;;;;;5067876;28;20483;-80
2021/11/14 10:59:52;;;;;;;23.80;14.57;;;11.50;99.90;;;;;;5065471;28;20475;-81
2021/11/14 11:02:21;;;;;;;22.92;13.20;;;11.40;99.90;;;;;;5065986;28;20455;-81
2021/11/14 11:04:49;;;;;;;24.43;17.10;;;11.40;99.90;;;;;;5066631;28;20201;-81
2021/11/14 11:07:16;;;;;;;25.60;15.73;;;11.20;99.90;;;;;;5067888;28;21024;-81
2021/11/14 11:09:44;;;;;;;24.63;15.63;;;11.20;99.90;;;;;;5074108;28;20458;-80
2021/11/14 11:12:18;;;;;;;24.10;15.67;;;11.20;99.90;;;;;;5067938;28;20494;-80
2021/11/14 11:14:56;;;;;;;28.57;19.83;;;11.10;99.90;;;;;;5067053;28;20528;-81
2021/11/14 11:17:23;;;;;;;26.80;16.73;;;11.20;99.90;;;;;;5067498;28;20474;-81
2021/11/14 11:19:50;;;;;;;22.83;17.07;;;11.30;99.90;;;;;;5065587;28;20479;-81
2021/11/14 11:22:16;;;;;;;24.57;17.50;;;11.30;99.90;;;;;;5062990;28;20543;-80
2021/11/14 11:24:52;;;;;;;22.30;15.80;;;11.30;99.90;;;;;;5061334;28;20538;-82
2021/11/14 11:27:19;;;;;;;23.43;14.30;;;11.40;99.90;;;;;;5061836;28;20443;-83
2021/11/14 11:29:47;;;;;;;22.37;13.70;;;11.60;99.90;;;;;;5062035;28;20556;-84
2021/11/14 11:32:18;;;;;;;21.40;14.87;;;11.50;99.90;;;;;;5062875;28;20421;-85
2021/11/14 11:34:46;;;;;;;21.20;15.00;;;11.50;99.90;;;;;;5068379;28;20469;-85
2021/11/14 11:37:14;;;;;;;22.40;16.50;;;11.40;99.90;;;;;;5067442;28;20478;-85
2021/11/14 11:39:42;;;;;;;25.70;16.50;;;11.50;99.90;;;;;;5074153;28;20497;-85
2021/11/14 11:42:09;;;;;;;27.90;16.50;;;11.50;99.90;;;;;;5074301;28;20447;-85
2021/11/14 11:44:36;;;;;;;23.70;15.80;;;11.50;99.90;;;;;;5073673;28;20456;-84
2021/11/14 11:47:08;;;;;;;24.20;16.30;;;11.40;99.90;;;;;;5075003;28;20458;-84
2021/11/14 11:49:43;;;;;;;20.80;15.73;;;11.40;99.90;;;;;;5069398;28;20939;-86
2021/11/14 11:52:17;;;;;;;24.10;16.37;;;11.40;99.90;;;;;;5071108;28;20506;-85
2021/11/14 11:54:47;;;;;;;24.43;17.03;;;11.30;99.90;;;;;;5074561;28;20419;-86
2021/11/14 11:57:16;;;;;;;26.73;15.63;;;11.30;99.90;;;;;;5060104;28;20440;-85
2021/11/14 11:59:46;;;;;;;23.60;16.73;;;11.40;99.90;;;;;;5062040;28;20533;-86
2021/11/14 12:02:16;;;;;;;22.27;13.40;;;11.50;99.90;;;;;;5060890;28;20553;-81
2021/11/14 12:04:47;;;;;;;24.97;15.97;;;11.70;99.90;;;;;;5056912;28;20538;-79
2021/11/14 12:07:17;;;;;;;21.83;15.53;;;11.70;99.90;;;;;;5072495;28;20450;-86
2021/11/14 12:09:47;;;;;;;22.80;15.90;;;11.70;99.90;;;;;;5077369;28;20485;-84
2021/11/14 12:12:22;;;;;;;21.40;15.33;;;11.50;99.90;;;;;;5073995;28;20474;-81
2021/11/14 12:15:04;;;;;;;22.77;15.93;;;11.40;99.90;;;;;;5061206;28;20927;-78
2021/11/14 12:17:32;;;;;;;20.40;14.07;;;11.60;99.90;;;;;;5060563;28;20760;-79
2021/11/14 12:20:08;;;;;;;19.90;15.93;;;11.70;99.90;;;;;;5060326;28;20495;-79
2021/11/14 12:22:44;;;;;;;20.77;14.50;;;11.60;99.90;;;;;;5065281;28;20453;-79
2021/11/14 12:25:21;;;;;;;22.60;16.03;;;11.50;99.90;;;;;;5066283;28;20451;-78
2021/11/14 12:27:58;;;;;;;27.67;15.07;;;11.50;99.90;;;;;;5062910;28;20438;-82
2021/11/14 12:30:25;;;;;;;21.03;15.40;;;11.80;99.90;;;;;;5063829;28;20466;-85
2021/11/14 12:32:54;;;;;;;20.47;14.20;;;11.90;99.90;;;;;;5061497;28;20554;-81
2021/11/14 12:35:25;;;;;;;19.17;11.17;;;11.80;99.90;;;;;;5061356;28;20517;-80